sensor_id;sensor_type;location;lat;lon;timestamp;P1;durP1;ratioP1;P2;durP2;ratioP2
45136;SDS011;30894;51.740;19.498;2023-10-13T00:04:41;8.50;;;3.15;;
45136;SDS011;30894;51.740;19.498;2023-10-13T00:07:07;7.70;;;3.03;;
45136;SDS011;30894;51.740;19.498;2023-10-13T00:09:36;8.70;;;3.10;;
45136;SDS011;30894;51.740;19.498;2023-10-13T00:12:05;7.68;;;3.53;;
45136;SDS011;30894;51.740;19.498;2023-10-13T00:14:39;8.23;;;3.40;;
45136;SDS011;30894;51.740;19.498;2023-10-13T00:17:13;8.40;;;3.50;;
45136;SDS011;30894;51.740;19.498;2023-10-13T00:19:45;9.35;;;3.72;;
45136;SDS011;30894;51.740;19.498;2023-10-13T00:22:18;11.52;;;3.40;;
45136;SDS011;30894;51.740;19.498;2023-10-13T00:24:45;6.72;;;3.28;;
45136;SDS011;30894;51.740;19.498;2023-10-13T00:27:13;11.18;;;3.13;;
45136;SDS011;30894;51.740;19.498;2023-10-13T00:30:04;6.88;;;3.53;;
45136;SDS011;30894;51.740;19.498;2023-10-13T00:32:59;9.60;;;3.28;;
45136;SDS011;30894;51.740;19.498;2023-10-13T00:35:27;8.82;;;3.65;;
45136;SDS011;30894;51.740;19.498;2023-10-13T00:37:55;6.82;;;3.05;;
45136;SDS011;30894;51.740;19.498;2023-10-13T00:40:29;7.40;;;3.30;;
45136;SDS011;30894;51.740;19.498;2023-10-13T00:42:57;8.82;;;3.78;;
45136;SDS011;30894;51.740;19.498;2023-10-13T00:45:53;6.53;;;3.53;;
45136;SDS011;30894;51.740;19.498;2023-10-13T00:48:26;5.53;;;3.28;;
45136;SDS011;30894;51.740;19.498;2023-10-13T00:51:02;8.32;;;3.40;;
45136;SDS011;30894;51.740;19.498;2023-10-13T00:53:44;15.63;;;3.63;;
45136;SDS011;30894;51.740;19.498;2023-10-13T00:56:13;10.55;;;4.10;;
45136;SDS011;30894;51.740;19.498;2023-10-13T00:58:48;14.05;;;4.30;;
45136;SDS011;30894;51.740;19.498;2023-10-13T01:03:54;7.38;;;3.92;;
45136;SDS011;30894;51.740;19.498;2023-10-13T01:06:25;12.85;;;3.92;;
45136;SDS011;30894;51.740;19.498;2023-10-13T01:08:58;13.02;;;4.47;;
45136;SDS011;30894;51.740;19.498;2023-10-13T01:11:47;8.68;;;3.95;;
45136;SDS011;30894;51.740;19.498;2023-10-13T01:14:21;12.23;;;4.07;;
45136;SDS011;30894;51.740;19.498;2023-10-13T01:16:53;6.68;;;3.15;;
45136;SDS011;30894;51.740;19.498;2023-10-13T01:19:20;7.47;;;3.90;;
45136;SDS011;30894;51.740;19.498;2023-10-13T01:21:54;10.82;;;3.80;;
45136;SDS011;30894;51.740;19.498;2023-10-13T01:24:28;8.93;;;3.83;;
45136;SDS011;30894;51.740;19.498;2023-10-13T01:27:01;10.90;;;3.78;;
45136;SDS011;30894;51.740;19.498;2023-10-13T01:29:43;11.00;;;3.38;;
45136;SDS011;30894;51.740;19.498;2023-10-13T01:32:21;8.93;;;3.40;;
45136;SDS011;30894;51.740;19.498;2023-10-13T01:34:49;7.22;;;3.45;;
45136;SDS011;30894;51.740;19.498;2023-10-13T01:37:21;9.93;;;3.75;;
45136;SDS011;30894;51.740;19.498;2023-10-13T01:39:50;7.57;;;3.38;;
45136;SDS011;30894;51.740;19.498;2023-10-13T01:42:16;9.75;;;3.92;;
45136;SDS011;30894;51.740;19.498;2023-10-13T01:44:46;18.05;;;5.20;;
45136;SDS011;30894;51.740;19.498;2023-10-13T01:47:15;12.15;;;5.60;;
45136;SDS011;30894;51.740;19.498;2023-10-13T01:49:42;8.68;;;5.00;;
45136;SDS011;30894;51.740;19.498;2023-10-13T01:52:13;12.35;;;4.60;;
45136;SDS011;30894;51.740;19.498;2023-10-13T01:54:42;9.25;;;3.92;;
45136;SDS011;30894;51.740;19.498;2023-10-13T01:57:11;11.93;;;4.65;;
45136;SDS011;30894;51.740;19.498;2023-10-13T01:59:43;14.07;;;5.03;;
45136;SDS011;30894;51.740;19.498;2023-10-13T02:02:11;9.73;;;5.10;;
45136;SDS011;30894;51.740;19.498;2023-10-13T02:04:40;12.82;;;4.90;;
45136;SDS011;30894;51.740;19.498;2023-10-13T02:07:22;11.38;;;5.85;;
45136;SDS011;30894;51.740;19.498;2023-10-13T02:09:59;13.88;;;5.85;;
45136;SDS011;30894;51.740;19.498;2023-10-13T02:12:31;16.83;;;4.63;;
45136;SDS011;30894;51.740;19.498;2023-10-13T02:15:10;14.68;;;3.65;;
45136;SDS011;30894;51.740;19.498;2023-10-13T02:17:46;10.82;;;3.28;;
45136;SDS011;30894;51.740;19.498;2023-10-13T02:20:17;11.70;;;3.33;;
45136;SDS011;30894;51.740;19.498;2023-10-13T02:22:49;8.45;;;2.88;;
45136;SDS011;30894;51.740;19.498;2023-10-13T02:25:19;7.63;;;3.10;;
45136;SDS011;30894;51.740;19.498;2023-10-13T02:28:03;13.23;;;3.63;;
45136;SDS011;30894;51.740;19.498;2023-10-13T02:30:42;14.48;;;3.47;;
45136;SDS011;30894;51.740;19.498;2023-10-13T02:33:14;11.27;;;3.58;;
45136;SDS011;30894;51.740;19.498;2023-10-13T02:35:46;8.07;;;3.08;;
45136;SDS011;30894;51.740;19.498;2023-10-13T02:38:21;9.52;;;3.15;;
45136;SDS011;30894;51.740;19.498;2023-10-13T02:41:04;10.52;;;3.47;;
45136;SDS011;30894;51.740;19.498;2023-10-13T02:43:44;13.27;;;3.50;;
45136;SDS011;30894;51.740;19.498;2023-10-13T02:46:11;8.75;;;3.75;;
45136;SDS011;30894;51.740;19.498;2023-10-13T02:48:37;8.85;;;3.22;;
45136;SDS011;30894;51.740;19.498;2023-10-13T02:51:08;6.82;;;2.97;;
45136;SDS011;30894;51.740;19.498;2023-10-13T02:53:42;9.60;;;3.60;;
45136;SDS011;30894;51.740;19.498;2023-10-13T02:56:18;12.75;;;3.67;;
45136;SDS011;30894;51.740;19.498;2023-10-13T02:58:46;8.60;;;3.88;;
45136;SDS011;30894;51.740;19.498;2023-10-13T03:01:19;8.07;;;3.40;;
45136;SDS011;30894;51.740;19.498;2023-10-13T03:03:48;14.93;;;3.88;;
45136;SDS011;30894;51.740;19.498;2023-10-13T03:06:20;9.93;;;4.38;;
45136;SDS011;30894;51.740;19.498;2023-10-13T03:08:58;7.57;;;3.10;;
45136;SDS011;30894;51.740;19.498;2023-10-13T03:11:39;10.05;;;3.50;;
45136;SDS011;30894;51.740;19.498;2023-10-13T03:14:20;14.02;;;3.75;;
45136;SDS011;30894;51.740;19.498;2023-10-13T03:16:54;13.52;;;3.78;;
45136;SDS011;30894;51.740;19.498;2023-10-13T03:19:34;12.02;;;3.95;;
45136;SDS011;30894;51.740;19.498;2023-10-13T03:22:04;11.43;;;4.38;;
45136;SDS011;30894;51.740;19.498;2023-10-13T03:24:41;8.52;;;4.13;;
45136;SDS011;30894;51.740;19.498;2023-10-13T03:27:14;7.82;;;4.35;;
45136;SDS011;30894;51.740;19.498;2023-10-13T03:29:42;16.67;;;5.80;;
45136;SDS011;30894;51.740;19.498;2023-10-13T03:32:14;9.82;;;4.38;;
45136;SDS011;30894;51.740;19.498;2023-10-13T03:34:47;11.30;;;4.03;;
45136;SDS011;30894;51.740;19.498;2023-10-13T03:37:25;8.80;;;3.50;;
45136;SDS011;30894;51.740;19.498;2023-10-13T03:40:06;8.95;;;3.55;;
45136;SDS011;30894;51.740;19.498;2023-10-13T03:42:46;14.43;;;3.78;;
45136;SDS011;30894;51.740;19.498;2023-10-13T03:45:33;9.05;;;3.50;;
45136;SDS011;30894;51.740;19.498;2023-10-13T03:48:16;9.63;;;3.63;;
45136;SDS011;30894;51.740;19.498;2023-10-13T03:50:50;8.95;;;3.63;;
45136;SDS011;30894;51.740;19.498;2023-10-13T03:53:36;7.72;;;3.67;;
45136;SDS011;30894;51.740;19.498;2023-10-13T03:56:21;8.48;;;4.10;;
45136;SDS011;30894;51.740;19.498;2023-10-13T03:58:57;12.00;;;3.55;;
45136;SDS011;30894;51.740;19.498;2023-10-13T04:01:32;10.18;;;3.60;;
45136;SDS011;30894;51.740;19.498;2023-10-13T04:04:09;11.32;;;3.08;;
45136;SDS011;30894;51.740;19.498;2023-10-13T04:06:41;10.15;;;3.50;;
45136;SDS011;30894;51.740;19.498;2023-10-13T04:09:14;9.63;;;3.13;;
45136;SDS011;30894;51.740;19.498;2023-10-13T04:11:55;8.15;;;3.25;;
45136;SDS011;30894;51.740;19.498;2023-10-13T04:14:31;11.77;;;3.72;;
45136;SDS011;30894;51.740;19.498;2023-10-13T04:17:18;9.07;;;3.35;;
45136;SDS011;30894;51.740;19.498;2023-10-13T04:19:48;10.00;;;3.55;;
45136;SDS011;30894;51.740;19.498;2023-10-13T04:22:40;10.73;;;3.75;;
45136;SDS011;30894;51.740;19.498;2023-10-13T04:25:15;9.90;;;3.05;;
45136;SDS011;30894;51.740;19.498;2023-10-13T04:28:01;14.68;;;3.78;;
45136;SDS011;30894;51.740;19.498;2023-10-13T04:33:21;12.82;;;4.10;;
45136;SDS011;30894;51.740;19.498;2023-10-13T04:36:11;8.00;;;3.60;;
45136;SDS011;30894;51.740;19.498;2023-10-13T04:38:51;9.88;;;4.03;;
45136;SDS011;30894;51.740;19.498;2023-10-13T04:41:31;7.95;;;3.60;;
45136;SDS011;30894;51.740;19.498;2023-10-13T04:44:12;9.55;;;4.15;;
45136;SDS011;30894;51.740;19.498;2023-10-13T04:46:55;7.30;;;3.45;;
45136;SDS011;30894;51.740;19.498;2023-10-13T04:49:28;14.20;;;4.45;;
45136;SDS011;30894;51.740;19.498;2023-10-13T04:52:00;13.18;;;4.00;;
45136;SDS011;30894;51.740;19.498;2023-10-13T04:54:44;15.65;;;3.90;;
45136;SDS011;30894;51.740;19.498;2023-10-13T04:57:14;8.27;;;3.58;;
45136;SDS011;30894;51.740;19.498;2023-10-13T04:59:48;13.23;;;3.53;;
45136;SDS011;30894;51.740;19.498;2023-10-13T05:02:35;10.68;;;3.67;;
45136;SDS011;30894;51.740;19.498;2023-10-13T05:05:12;10.77;;;3.60;;
45136;SDS011;30894;51.740;19.498;2023-10-13T05:08:09;6.53;;;3.30;;
45136;SDS011;30894;51.740;19.498;2023-10-13T05:10:56;10.20;;;3.42;;
45136;SDS011;30894;51.740;19.498;2023-10-13T05:13:41;11.57;;;3.40;;
45136;SDS011;30894;51.740;19.498;2023-10-13T05:16:26;9.77;;;2.83;;
45136;SDS011;30894;51.740;19.498;2023-10-13T05:19:11;6.50;;;3.15;;
45136;SDS011;30894;51.740;19.498;2023-10-13T05:21:56;8.98;;;3.30;;
45136;SDS011;30894;51.740;19.498;2023-10-13T05:24:41;11.10;;;3.20;;
45136;SDS011;30894;51.740;19.498;2023-10-13T05:27:27;11.43;;;3.60;;
45136;SDS011;30894;51.740;19.498;2023-10-13T05:30:13;8.80;;;4.00;;
45136;SDS011;30894;51.740;19.498;2023-10-13T05:32:58;10.15;;;4.15;;
45136;SDS011;30894;51.740;19.498;2023-10-13T05:35:43;11.27;;;4.20;;
45136;SDS011;30894;51.740;19.498;2023-10-13T05:38:28;8.63;;;3.42;;
45136;SDS011;30894;51.740;19.498;2023-10-13T05:41:13;14.20;;;4.30;;
45136;SDS011;30894;51.740;19.498;2023-10-13T05:44:14;13.30;;;4.10;;
45136;SDS011;30894;51.740;19.498;2023-10-13T05:47:04;8.82;;;4.10;;
45136;SDS011;30894;51.740;19.498;2023-10-13T05:49:53;8.88;;;4.30;;
45136;SDS011;30894;51.740;19.498;2023-10-13T05:52:30;12.88;;;4.50;;
45136;SDS011;30894;51.740;19.498;2023-10-13T05:55:15;13.40;;;4.55;;
45136;SDS011;30894;51.740;19.498;2023-10-13T05:58:00;15.00;;;5.47;;
45136;SDS011;30894;51.740;19.498;2023-10-13T06:00:46;14.80;;;6.18;;
45136;SDS011;30894;51.740;19.498;2023-10-13T06:03:31;15.77;;;5.40;;
45136;SDS011;30894;51.740;19.498;2023-10-13T06:06:15;12.00;;;5.00;;
45136;SDS011;30894;51.740;19.498;2023-10-13T06:09:00;20.13;;;6.65;;
45136;SDS011;30894;51.740;19.498;2023-10-13T06:11:46;16.52;;;6.97;;
45136;SDS011;30894;51.740;19.498;2023-10-13T06:14:30;16.50;;;6.55;;
45136;SDS011;30894;51.740;19.498;2023-10-13T06:17:15;18.33;;;6.50;;
45136;SDS011;30894;51.740;19.498;2023-10-13T06:19:59;15.55;;;5.90;;
45136;SDS011;30894;51.740;19.498;2023-10-13T06:22:47;11.77;;;5.75;;
45136;SDS011;30894;51.740;19.498;2023-10-13T06:25:32;15.52;;;6.15;;
45136;SDS011;30894;51.740;19.498;2023-10-13T06:28:17;17.30;;;5.68;;
45136;SDS011;30894;51.740;19.498;2023-10-13T06:31:03;13.43;;;6.00;;
45136;SDS011;30894;51.740;19.498;2023-10-13T06:33:34;16.58;;;6.45;;
45136;SDS011;30894;51.740;19.498;2023-10-13T06:36:03;18.25;;;6.97;;
45136;SDS011;30894;51.740;19.498;2023-10-13T06:38:35;19.27;;;6.53;;
45136;SDS011;30894;51.740;19.498;2023-10-13T06:41:02;15.07;;;7.35;;
45136;SDS011;30894;51.740;19.498;2023-10-13T06:43:34;12.65;;;6.28;;
45136;SDS011;30894;51.740;19.498;2023-10-13T06:46:11;14.63;;;6.50;;
45136;SDS011;30894;51.740;19.498;2023-10-13T06:51:19;12.13;;;6.32;;
45136;SDS011;30894;51.740;19.498;2023-10-13T06:53:53;15.35;;;6.50;;
45136;SDS011;30894;51.740;19.498;2023-10-13T06:56:22;16.35;;;6.63;;
45136;SDS011;30894;51.740;19.498;2023-10-13T06:59:00;11.45;;;6.15;;
45136;SDS011;30894;51.740;19.498;2023-10-13T07:01:30;21.50;;;6.97;;
45136;SDS011;30894;51.740;19.498;2023-10-13T07:04:04;13.60;;;6.32;;
45136;SDS011;30894;51.740;19.498;2023-10-13T07:06:40;14.65;;;6.57;;
45136;SDS011;30894;51.740;19.498;2023-10-13T07:09:18;14.80;;;6.38;;
45136;SDS011;30894;51.740;19.498;2023-10-13T07:12:03;11.77;;;7.28;;
45136;SDS011;30894;51.740;19.498;2023-10-13T07:14:48;16.73;;;6.90;;
45136;SDS011;30894;51.740;19.498;2023-10-13T07:17:21;13.63;;;6.95;;
45136;SDS011;30894;51.740;19.498;2023-10-13T07:19:54;19.25;;;7.70;;
45136;SDS011;30894;51.740;19.498;2023-10-13T07:22:31;19.05;;;7.90;;
45136;SDS011;30894;51.740;19.498;2023-10-13T07:25:05;18.17;;;8.48;;
45136;SDS011;30894;51.740;19.498;2023-10-13T07:27:32;24.73;;;9.70;;
45136;SDS011;30894;51.740;19.498;2023-10-13T07:30:01;18.58;;;7.97;;
45136;SDS011;30894;51.740;19.498;2023-10-13T07:32:52;17.45;;;8.35;;
45136;SDS011;30894;51.740;19.498;2023-10-13T07:35:25;21.40;;;7.93;;
45136;SDS011;30894;51.740;19.498;2023-10-13T07:37:56;14.98;;;7.43;;
45136;SDS011;30894;51.740;19.498;2023-10-13T07:40:25;22.90;;;9.35;;
45136;SDS011;30894;51.740;19.498;2023-10-13T07:42:52;35.42;;;13.35;;
45136;SDS011;30894;51.740;19.498;2023-10-13T07:45:37;22.27;;;9.00;;
45136;SDS011;30894;51.740;19.498;2023-10-13T07:48:10;18.13;;;8.25;;
45136;SDS011;30894;51.740;19.498;2023-10-13T07:50:59;21.48;;;8.55;;
45136;SDS011;30894;51.740;19.498;2023-10-13T07:53:31;17.08;;;8.43;;
45136;SDS011;30894;51.740;19.498;2023-10-13T07:56:06;13.90;;;6.78;;
45136;SDS011;30894;51.740;19.498;2023-10-13T07:58:34;15.93;;;7.20;;
45136;SDS011;30894;51.740;19.498;2023-10-13T08:01:18;18.00;;;7.15;;
45136;SDS011;30894;51.740;19.498;2023-10-13T08:03:46;16.35;;;7.22;;
45136;SDS011;30894;51.740;19.498;2023-10-13T08:06:31;19.27;;;7.60;;
45136;SDS011;30894;51.740;19.498;2023-10-13T08:08:59;14.85;;;6.20;;
45136;SDS011;30894;51.740;19.498;2023-10-13T08:11:36;15.45;;;7.95;;
45136;SDS011;30894;51.740;19.498;2023-10-13T08:14:03;15.30;;;7.45;;
45136;SDS011;30894;51.740;19.498;2023-10-13T08:16:38;20.95;;;7.15;;
45136;SDS011;30894;51.740;19.498;2023-10-13T08:19:18;15.73;;;7.25;;
45136;SDS011;30894;51.740;19.498;2023-10-13T08:22:08;14.50;;;6.50;;
45136;SDS011;30894;51.740;19.498;2023-10-13T08:24:47;20.02;;;7.00;;
45136;SDS011;30894;51.740;19.498;2023-10-13T08:27:22;15.60;;;7.53;;
45136;SDS011;30894;51.740;19.498;2023-10-13T08:30:13;13.60;;;7.18;;
45136;SDS011;30894;51.740;19.498;2023-10-13T08:32:52;16.27;;;7.90;;
45136;SDS011;30894;51.740;19.498;2023-10-13T08:35:22;17.15;;;7.32;;
45136;SDS011;30894;51.740;19.498;2023-10-13T08:38:09;17.48;;;6.90;;
45136;SDS011;30894;51.740;19.498;2023-10-13T08:40:43;16.40;;;7.27;;
45136;SDS011;30894;51.740;19.498;2023-10-13T08:43:42;12.00;;;6.35;;
45136;SDS011;30894;51.740;19.498;2023-10-13T08:46:17;14.25;;;5.70;;
45136;SDS011;30894;51.740;19.498;2023-10-13T08:48:55;17.73;;;7.00;;
45136;SDS011;30894;51.740;19.498;2023-10-13T08:51:43;14.45;;;6.75;;
45136;SDS011;30894;51.740;19.498;2023-10-13T08:54:12;14.75;;;6.63;;
45136;SDS011;30894;51.740;19.498;2023-10-13T08:56:58;15.80;;;6.38;;
45136;SDS011;30894;51.740;19.498;2023-10-13T08:59:47;12.45;;;5.47;;
45136;SDS011;30894;51.740;19.498;2023-10-13T09:02:21;9.65;;;5.50;;
45136;SDS011;30894;51.740;19.498;2023-10-13T09:05:11;17.85;;;5.18;;
45136;SDS011;30894;51.740;19.498;2023-10-13T09:07:56;13.05;;;5.68;;
45136;SDS011;30894;51.740;19.498;2023-10-13T09:10:34;12.45;;;4.28;;
45136;SDS011;30894;51.740;19.498;2023-10-13T09:13:14;12.40;;;4.63;;
45136;SDS011;30894;51.740;19.498;2023-10-13T09:15:47;12.05;;;4.82;;
45136;SDS011;30894;51.740;19.498;2023-10-13T09:18:25;10.07;;;5.20;;
45136;SDS011;30894;51.740;19.498;2023-10-13T09:21:12;10.45;;;4.47;;
45136;SDS011;30894;51.740;19.498;2023-10-13T09:24:16;6.35;;;4.00;;
45136;SDS011;30894;51.740;19.498;2023-10-13T09:26:53;14.45;;;4.68;;
45136;SDS011;30894;51.740;19.498;2023-10-13T09:29:22;13.27;;;4.63;;
45136;SDS011;30894;51.740;19.498;2023-10-13T09:32:00;11.75;;;4.40;;
45136;SDS011;30894;51.740;19.498;2023-10-13T09:34:30;9.43;;;4.32;;
45136;SDS011;30894;51.740;19.498;2023-10-13T09:37:06;12.63;;;4.18;;
45136;SDS011;30894;51.740;19.498;2023-10-13T09:39:35;10.80;;;4.70;;
45136;SDS011;30894;51.740;19.498;2023-10-13T09:42:18;9.32;;;4.25;;
45136;SDS011;30894;51.740;19.498;2023-10-13T09:44:45;12.10;;;4.20;;
45136;SDS011;30894;51.740;19.498;2023-10-13T09:47:22;14.43;;;4.32;;
45136;SDS011;30894;51.740;19.498;2023-10-13T09:50:02;11.57;;;3.63;;
45136;SDS011;30894;51.740;19.498;2023-10-13T09:52:31;7.45;;;3.90;;
45136;SDS011;30894;51.740;19.498;2023-10-13T09:55:10;11.63;;;4.68;;
45136;SDS011;30894;51.740;19.498;2023-10-13T09:57:56;12.43;;;4.63;;
45136;SDS011;30894;51.740;19.498;2023-10-13T10:03:24;11.98;;;3.90;;
45136;SDS011;30894;51.740;19.498;2023-10-13T10:06:00;10.00;;;4.57;;
45136;SDS011;30894;51.740;19.498;2023-10-13T10:09:03;9.05;;;4.00;;
45136;SDS011;30894;51.740;19.498;2023-10-13T10:11:57;10.15;;;4.30;;
45136;SDS011;30894;51.740;19.498;2023-10-13T10:18:21;8.25;;;3.50;;
45136;SDS011;30894;51.740;19.498;2023-10-13T10:20:51;10.15;;;3.97;;
45136;SDS011;30894;51.740;19.498;2023-10-13T10:23:32;8.85;;;3.95;;
45136;SDS011;30894;51.740;19.498;2023-10-13T10:26:09;7.30;;;3.42;;
45136;SDS011;30894;51.740;19.498;2023-10-13T10:28:41;11.18;;;3.35;;
45136;SDS011;30894;51.740;19.498;2023-10-13T10:31:09;10.57;;;4.07;;
45136;SDS011;30894;51.740;19.498;2023-10-13T10:33:41;7.18;;;3.10;;
45136;SDS011;30894;51.740;19.498;2023-10-13T10:36:10;9.63;;;3.40;;
45136;SDS011;30894;51.740;19.498;2023-10-13T10:38:52;8.65;;;3.88;;
45136;SDS011;30894;51.740;19.498;2023-10-13T10:41:25;6.53;;;3.50;;
45136;SDS011;30894;51.740;19.498;2023-10-13T10:44:15;11.43;;;3.90;;
45136;SDS011;30894;51.740;19.498;2023-10-13T10:46:42;11.90;;;3.95;;
45136;SDS011;30894;51.740;19.498;2023-10-13T10:49:22;10.30;;;4.00;;
45136;SDS011;30894;51.740;19.498;2023-10-13T10:51:59;11.85;;;4.22;;
45136;SDS011;30894;51.740;19.498;2023-10-13T10:54:30;7.95;;;3.30;;
45136;SDS011;30894;51.740;19.498;2023-10-13T10:56:58;8.93;;;3.38;;
45136;SDS011;30894;51.740;19.498;2023-10-13T10:59:43;8.73;;;3.10;;
45136;SDS011;30894;51.740;19.498;2023-10-13T11:02:12;12.00;;;3.55;;
45136;SDS011;30894;51.740;19.498;2023-10-13T11:04:51;7.68;;;3.03;;
45136;SDS011;30894;51.740;19.498;2023-10-13T11:07:22;7.82;;;3.20;;
45136;SDS011;30894;51.740;19.498;2023-10-13T11:09:49;9.30;;;2.90;;
45136;SDS011;30894;51.740;19.498;2023-10-13T11:12:18;10.93;;;3.08;;
45136;SDS011;30894;51.740;19.498;2023-10-13T11:15:04;7.65;;;3.15;;
45136;SDS011;30894;51.740;19.498;2023-10-13T11:17:48;8.23;;;3.13;;
45136;SDS011;30894;51.740;19.498;2023-10-13T11:20:20;7.70;;;3.38;;
45136;SDS011;30894;51.740;19.498;2023-10-13T11:23:14;7.50;;;3.20;;
45136;SDS011;30894;51.740;19.498;2023-10-13T11:25:59;8.35;;;3.30;;
45136;SDS011;30894;51.740;19.498;2023-10-13T11:28:26;7.53;;;3.22;;
45136;SDS011;30894;51.740;19.498;2023-10-13T11:30:53;8.55;;;2.83;;
45136;SDS011;30894;51.740;19.498;2023-10-13T11:33:27;7.60;;;3.05;;
45136;SDS011;30894;51.740;19.498;2023-10-13T11:35:56;11.82;;;3.40;;
45136;SDS011;30894;51.740;19.498;2023-10-13T11:38:29;6.60;;;3.28;;
45136;SDS011;30894;51.740;19.498;2023-10-13T11:41:11;8.80;;;3.30;;
45136;SDS011;30894;51.740;19.498;2023-10-13T11:43:38;5.70;;;2.60;;
45136;SDS011;30894;51.740;19.498;2023-10-13T11:46:30;5.03;;;2.80;;
45136;SDS011;30894;51.740;19.498;2023-10-13T11:49:25;5.30;;;2.88;;
45136;SDS011;30894;51.740;19.498;2023-10-13T11:51:55;7.68;;;2.70;;
45136;SDS011;30894;51.740;19.498;2023-10-13T11:54:37;9.88;;;2.88;;
45136;SDS011;30894;51.740;19.498;2023-10-13T11:57:07;4.60;;;2.80;;
45136;SDS011;30894;51.740;19.498;2023-10-13T11:59:35;12.65;;;3.28;;
45136;SDS011;30894;51.740;19.498;2023-10-13T12:02:06;6.13;;;3.35;;
45136;SDS011;30894;51.740;19.498;2023-10-13T12:04:36;6.85;;;3.30;;
45136;SDS011;30894;51.740;19.498;2023-10-13T12:07:18;7.30;;;2.72;;
45136;SDS011;30894;51.740;19.498;2023-10-13T12:10:07;9.30;;;3.33;;
45136;SDS011;30894;51.740;19.498;2023-10-13T12:12:56;6.55;;;3.20;;
45136;SDS011;30894;51.740;19.498;2023-10-13T12:15:29;9.35;;;2.80;;
45136;SDS011;30894;51.740;19.498;2023-10-13T12:18:02;10.93;;;3.28;;
45136;SDS011;30894;51.740;19.498;2023-10-13T12:20:32;11.93;;;2.72;;
45136;SDS011;30894;51.740;19.498;2023-10-13T12:23:01;6.22;;;2.92;;
45136;SDS011;30894;51.740;19.498;2023-10-13T12:25:46;6.90;;;2.58;;
45136;SDS011;30894;51.740;19.498;2023-10-13T12:28:38;7.80;;;3.50;;
45136;SDS011;30894;51.740;19.498;2023-10-13T12:31:17;7.10;;;3.40;;
45136;SDS011;30894;51.740;19.498;2023-10-13T12:33:52;5.57;;;3.47;;
45136;SDS011;30894;51.740;19.498;2023-10-13T12:36:23;7.05;;;3.17;;
45136;SDS011;30894;51.740;19.498;2023-10-13T12:38:57;6.13;;;3.30;;
45136;SDS011;30894;51.740;19.498;2023-10-13T12:41:32;6.50;;;3.17;;
45136;SDS011;30894;51.740;19.498;2023-10-13T12:44:17;8.38;;;3.67;;
45136;SDS011;30894;51.740;19.498;2023-10-13T12:47:02;7.68;;;3.80;;
45136;SDS011;30894;51.740;19.498;2023-10-13T12:49:46;12.77;;;3.70;;
45136;SDS011;30894;51.740;19.498;2023-10-13T12:52:14;4.03;;;2.67;;
45136;SDS011;30894;51.740;19.498;2023-10-13T12:54:57;9.07;;;4.10;;
45136;SDS011;30894;51.740;19.498;2023-10-13T12:57:27;6.20;;;3.70;;
45136;SDS011;30894;51.740;19.498;2023-10-13T12:59:54;8.88;;;3.63;;
45136;SDS011;30894;51.740;19.498;2023-10-13T13:02:22;8.05;;;4.05;;
45136;SDS011;30894;51.740;19.498;2023-10-13T13:04:55;8.98;;;4.03;;
45136;SDS011;30894;51.740;19.498;2023-10-13T13:07:33;5.80;;;3.80;;
45136;SDS011;30894;51.740;19.498;2023-10-13T13:10:15;7.47;;;3.40;;
45136;SDS011;30894;51.740;19.498;2023-10-13T13:12:42;6.10;;;3.58;;
45136;SDS011;30894;51.740;19.498;2023-10-13T13:15:08;7.28;;;3.75;;
45136;SDS011;30894;51.740;19.498;2023-10-13T13:17:40;6.68;;;3.38;;
45136;SDS011;30894;51.740;19.498;2023-10-13T13:20:07;9.70;;;3.40;;
45136;SDS011;30894;51.740;19.498;2023-10-13T13:22:52;7.70;;;3.83;;
45136;SDS011;30894;51.740;19.498;2023-10-13T13:25:19;5.95;;;3.92;;
45136;SDS011;30894;51.740;19.498;2023-10-13T13:27:52;7.13;;;3.83;;
45136;SDS011;30894;51.740;19.498;2023-10-13T13:30:18;11.07;;;4.05;;
45136;SDS011;30894;51.740;19.498;2023-10-13T13:32:48;7.75;;;4.85;;
45136;SDS011;30894;51.740;19.498;2023-10-13T13:35:15;8.27;;;4.32;;
45136;SDS011;30894;51.740;19.498;2023-10-13T13:37:44;7.63;;;4.07;;
45136;SDS011;30894;51.740;19.498;2023-10-13T13:40:10;9.18;;;4.03;;
45136;SDS011;30894;51.740;19.498;2023-10-13T13:42:42;8.63;;;4.03;;
45136;SDS011;30894;51.740;19.498;2023-10-13T13:45:14;9.50;;;4.35;;
45136;SDS011;30894;51.740;19.498;2023-10-13T13:47:53;8.30;;;3.67;;
45136;SDS011;30894;51.740;19.498;2023-10-13T13:50:26;7.20;;;3.70;;
45136;SDS011;30894;51.740;19.498;2023-10-13T13:52:58;8.73;;;3.88;;
45136;SDS011;30894;51.740;19.498;2023-10-13T13:55:27;6.38;;;3.75;;
45136;SDS011;30894;51.740;19.498;2023-10-13T13:57:59;4.72;;;3.17;;
45136;SDS011;30894;51.740;19.498;2023-10-13T14:00:25;7.40;;;3.92;;
45136;SDS011;30894;51.740;19.498;2023-10-13T14:03:05;7.13;;;3.63;;
45136;SDS011;30894;51.740;19.498;2023-10-13T14:05:40;10.30;;;3.92;;
45136;SDS011;30894;51.740;19.498;2023-10-13T14:08:11;5.35;;;3.30;;
45136;SDS011;30894;51.740;19.498;2023-10-13T14:10:39;7.50;;;3.92;;
45136;SDS011;30894;51.740;19.498;2023-10-13T14:13:24;10.13;;;4.10;;
45136;SDS011;30894;51.740;19.498;2023-10-13T14:16:09;5.65;;;3.50;;
45136;SDS011;30894;51.740;19.498;2023-10-13T14:18:45;5.38;;;3.50;;
45136;SDS011;30894;51.740;19.498;2023-10-13T14:21:17;7.00;;;4.05;;
45136;SDS011;30894;51.740;19.498;2023-10-13T14:23:46;6.63;;;4.13;;
45136;SDS011;30894;51.740;19.498;2023-10-13T14:26:17;8.27;;;3.42;;
45136;SDS011;30894;51.740;19.498;2023-10-13T14:28:48;7.32;;;3.80;;
45136;SDS011;30894;51.740;19.498;2023-10-13T14:31:34;5.55;;;3.42;;
45136;SDS011;30894;51.740;19.498;2023-10-13T14:34:05;8.07;;;3.67;;
45136;SDS011;30894;51.740;19.498;2023-10-13T14:36:34;6.45;;;3.25;;
45136;SDS011;30894;51.740;19.498;2023-10-13T14:39:01;4.82;;;3.80;;
45136;SDS011;30894;51.740;19.498;2023-10-13T14:41:28;10.88;;;3.88;;
45136;SDS011;30894;51.740;19.498;2023-10-13T14:43:56;6.28;;;2.90;;
45136;SDS011;30894;51.740;19.498;2023-10-13T14:46:30;7.00;;;3.72;;
45136;SDS011;30894;51.740;19.498;2023-10-13T14:48:57;4.88;;;3.63;;
45136;SDS011;30894;51.740;19.498;2023-10-13T14:51:27;6.15;;;3.47;;
45136;SDS011;30894;51.740;19.498;2023-10-13T14:53:54;5.90;;;3.25;;
45136;SDS011;30894;51.740;19.498;2023-10-13T14:56:21;7.80;;;3.50;;
45136;SDS011;30894;51.740;19.498;2023-10-13T14:58:51;6.45;;;3.50;;
45136;SDS011;30894;51.740;19.498;2023-10-13T15:01:21;9.48;;;3.53;;
45136;SDS011;30894;51.740;19.498;2023-10-13T15:03:53;5.90;;;3.20;;
45136;SDS011;30894;51.740;19.498;2023-10-13T15:06:24;7.90;;;3.42;;
45136;SDS011;30894;51.740;19.498;2023-10-13T15:08:58;5.30;;;3.53;;
45136;SDS011;30894;51.740;19.498;2023-10-13T15:11:26;3.80;;;2.88;;
45136;SDS011;30894;51.740;19.498;2023-10-13T15:14:04;4.32;;;3.08;;
45136;SDS011;30894;51.740;19.498;2023-10-13T15:16:32;6.30;;;3.35;;
45136;SDS011;30894;51.740;19.498;2023-10-13T15:19:03;5.03;;;3.13;;
45136;SDS011;30894;51.740;19.498;2023-10-13T15:21:31;4.78;;;2.85;;
45136;SDS011;30894;51.740;19.498;2023-10-13T15:24:02;6.72;;;3.05;;
45136;SDS011;30894;51.740;19.498;2023-10-13T15:26:43;6.45;;;3.22;;
45136;SDS011;30894;51.740;19.498;2023-10-13T15:29:17;5.38;;;2.90;;
45136;SDS011;30894;51.740;19.498;2023-10-13T15:31:50;6.32;;;2.72;;
45136;SDS011;30894;51.740;19.498;2023-10-13T15:34:29;6.60;;;3.20;;
45136;SDS011;30894;51.740;19.498;2023-10-13T15:36:58;5.38;;;3.10;;
45136;SDS011;30894;51.740;19.498;2023-10-13T15:39:26;7.88;;;3.00;;